Time;durP1;ratioP1;P1;durP2;ratioP2;P2;SDS_P1;SDS_P2;PMS_P1;PMS_P2;Temp;Humidity;BMP_temperature;BMP_pressure;BME280_temperature;BME280_humidity;BME280_pressure;Samples;Min_cycle;Max_cycle;Signal;HPM_P1;HPM_P2
2022/05/16 00:02:17;;;;;;;2.70;1.45;;;19.20;99.90;;;;;;5062717;28;20591;-83
2022/05/16 00:04:50;;;;;;;1.45;1.05;;;19.30;99.90;;;;;;5065765;28;20194;-83
2022/05/16 00:07:22;;;;;;;2.55;1.02;;;19.40;99.90;;;;;;5066592;28;20272;-84
2022/05/16 00:09:54;;;;;;;2.15;0.95;;;19.50;99.90;;;;;;5063240;28;20229;-85
2022/05/16 00:12:25;;;;;;;2.28;1.20;;;19.70;99.90;;;;;;5066433;28;20197;-85
2022/05/16 00:14:56;;;;;;;1.67;1.00;;;19.70;99.90;;;;;;5059142;28;20591;-86
2022/05/16 00:17:28;;;;;;;1.73;0.90;;;19.80;99.90;;;;;;5061521;28;20708;-84
2022/05/16 00:19:59;;;;;;;2.45;0.90;;;19.90;99.90;;;;;;5054682;28;20232;-84
2022/05/16 00:22:30;;;;;;;0.95;0.75;;;20.00;99.90;;;;;;5054904;28;20641;-85
2022/05/16 00:25:02;;;;;;;1.48;0.73;;;20.10;99.90;;;;;;5055329;28;20680;-85
2022/05/16 00:27:34;;;;;;;1.85;0.70;;;20.20;99.90;;;;;;5069744;28;20196;-84
2022/05/16 00:30:05;;;;;;;2.13;0.80;;;20.30;99.90;;;;;;5057524;28;20568;-85
2022/05/16 00:32:36;;;;;;;1.65;1.08;;;20.40;99.90;;;;;;5062458;28;20197;-84
2022/05/16 00:35:08;;;;;;;2.60;1.08;;;20.50;99.90;;;;;;5064165;28;20627;-84
2022/05/16 00:37:39;;;;;;;3.40;1.05;;;20.60;99.90;;;;;;5054644;28;20240;-85
2022/05/16 00:40:13;;;;;;;2.78;0.70;;;20.60;99.90;;;;;;5062754;28;20210;-84
2022/05/16 00:42:44;;;;;;;0.55;0.55;;;20.70;99.90;;;;;;5054440;28;20597;-85
2022/05/16 00:45:16;;;;;;;2.22;0.60;;;20.70;99.90;;;;;;5067720;28;20615;-84
2022/05/16 00:47:47;;;;;;;1.10;0.60;;;20.80;99.90;;;;;;5063216;28;20200;-84
2022/05/16 00:50:18;;;;;;;0.60;0.60;;;20.80;99.90;;;;;;5062801;28;20197;-85
2022/05/16 00:52:50;;;;;;;0.55;0.55;;;20.90;99.90;;;;;;5062801;28;20232;-83
2022/05/16 00:55:25;;;;;;;0.40;0.40;;;21.00;99.90;;;;;;5064000;28;20193;-84
2022/05/16 00:57:59;;;;;;;1.50;0.70;;;21.00;99.90;;;;;;5069806;28;20201;-84
2022/05/16 01:00:31;;;;;;;0.75;0.60;;;21.10;99.90;;;;;;5063287;28;20197;-84
2022/05/16 01:05:50;;;;;;;2.28;0.50;;;21.30;99.90;;;;;;5063358;28;20208;-85
2022/05/16 01:08:24;;;;;;;0.80;0.55;;;21.30;99.90;;;;;;5057829;28;20241;-86
2022/05/16 01:10:58;;;;;;;0.50;0.50;;;21.40;99.90;;;;;;5060665;28;20197;-84
2022/05/16 01:13:33;;;;;;;0.80;0.60;;;21.40;99.90;;;;;;5058268;28;20196;-84
2022/05/16 01:16:05;;;;;;;0.63;0.63;;;21.40;99.90;;;;;;5062869;28;20213;-86
2022/05/16 01:18:36;;;;;;;2.00;0.50;;;21.50;99.90;;;;;;5060986;28;20201;-85
2022/05/16 01:21:33;;;;;;;1.58;0.70;;;21.50;99.90;;;;;;5055342;28;20185;-85
2022/05/16 01:24:09;;;;;;;2.60;0.60;;;21.70;99.90;;;;;;5048825;28;20197;-84
2022/05/16 01:26:40;;;;;;;0.52;0.50;;;21.70;99.90;;;;;;5054559;28;20288;-85
2022/05/16 01:29:11;;;;;;;0.50;0.50;;;21.80;99.90;;;;;;5058750;28;20539;-84
2022/05/16 01:31:44;;;;;;;0.88;0.60;;;21.80;99.90;;;;;;5061830;28;20684;-84
2022/05/16 01:34:16;;;;;;;0.40;0.40;;;21.90;99.90;;;;;;5063989;28;20304;-87
2022/05/16 01:36:46;;;;;;;1.40;0.45;;;21.90;99.90;;;;;;5067360;28;20212;-87
2022/05/16 01:39:20;;;;;;;0.50;0.50;;;21.90;99.90;;;;;;5070832;28;20605;-89
2022/05/16 01:41:50;;;;;;;0.43;0.40;;;21.90;99.90;;;;;;5053631;28;20204;-84
2022/05/16 01:44:21;;;;;;;0.60;0.50;;;22.00;99.90;;;;;;5058205;28;20197;-86
2022/05/16 01:46:52;;;;;;;3.13;0.60;;;21.90;99.90;;;;;;5064368;28;20194;-92
2022/05/16 01:49:22;;;;;;;0.75;0.50;;;22.00;99.90;;;;;;5059853;28;20189;-85
2022/05/16 01:51:53;;;;;;;2.80;1.00;;;22.00;99.90;;;;;;5056211;28;20221;-84
2022/05/16 01:54:25;;;;;;;1.58;0.80;;;22.00;99.90;;;;;;5056411;28;20202;-84
2022/05/16 01:56:56;;;;;;;0.63;0.47;;;22.10;99.90;;;;;;5061820;28;20259;-86
2022/05/16 01:59:26;;;;;;;0.85;0.52;;;22.10;99.90;;;;;;5065762;28;20660;-88
2022/05/16 02:01:57;;;;;;;1.45;0.45;;;22.20;99.90;;;;;;5060692;28;20258;-85
2022/05/16 02:04:28;;;;;;;0.60;0.50;;;22.20;99.90;;;;;;5054211;28;20499;-86
2022/05/16 02:06:58;;;;;;;1.30;0.50;;;22.20;99.90;;;;;;5065384;28;20602;-86
2022/05/16 02:09:31;;;;;;;1.00;0.50;;;22.20;99.90;;;;;;5054949;28;20228;-85
2022/05/16 02:12:01;;;;;;;0.75;0.50;;;22.30;99.90;;;;;;5052709;28;20202;-90
2022/05/16 02:14:32;;;;;;;2.00;1.10;;;22.40;99.90;;;;;;5059880;28;20194;-83
2022/05/16 02:17:03;;;;;;;2.05;0.60;;;22.50;99.90;;;;;;5054422;28;20221;-86
2022/05/16 02:19:33;;;;;;;1.60;0.50;;;22.50;99.90;;;;;;5052850;28;20247;-85
2022/05/16 02:24:52;;;;;;;2.00;0.55;;;22.50;99.90;;;;;;5060089;28;20207;-83
2022/05/16 02:27:23;;;;;;;0.50;0.40;;;22.50;99.90;;;;;;5062775;28;20205;-84
2022/05/16 02:29:53;;;;;;;1.33;0.85;;;22.50;99.90;;;;;;5067813;28;20193;-84
2022/05/16 02:32:24;;;;;;;1.38;0.60;;;22.50;99.90;;;;;;5068445;28;20196;-85
2022/05/16 02:34:55;;;;;;;1.70;0.55;;;22.50;99.90;;;;;;5065386;28;20188;-86
2022/05/16 02:37:26;;;;;;;0.70;0.70;;;22.50;99.90;;;;;;5067047;28;20219;-82
2022/05/16 02:39:58;;;;;;;8.77;6.00;;;22.60;99.90;;;;;;5064913;28;20427;-87
2022/05/16 02:42:29;;;;;;;6.90;5.28;;;22.50;99.90;;;;;;5064661;28;20327;-85
2022/05/16 02:44:59;;;;;;;1.88;0.80;;;22.60;99.90;;;;;;5059390;28;20193;-82
2022/05/16 02:47:30;;;;;;;1.70;1.45;;;22.60;99.90;;;;;;5061108;28;20657;-83
2022/05/16 02:50:01;;;;;;;1.23;0.80;;;22.60;99.90;;;;;;5057200;28;20202;-83
2022/05/16 02:52:31;;;;;;;2.28;0.93;;;22.70;99.90;;;;;;5066647;28;20683;-84
2022/05/16 02:55:04;;;;;;;1.00;0.70;;;22.70;99.90;;;;;;5070942;28;20189;-84
2022/05/16 02:57:35;;;;;;;2.13;0.88;;;22.70;99.90;;;;;;5060094;28;20231;-85
2022/05/16 03:00:08;;;;;;;2.78;0.95;;;22.70;99.90;;;;;;5074482;28;20239;-84
2022/05/16 03:02:39;;;;;;;1.17;0.73;;;22.80;99.90;;;;;;5056690;28;20648;-83
2022/05/16 03:05:11;;;;;;;1.63;0.70;;;22.80;99.90;;;;;;5062738;28;20194;-83
2022/05/16 03:07:42;;;;;;;1.33;0.60;;;22.80;99.90;;;;;;5061837;28;20197;-85
2022/05/16 03:10:15;;;;;;;0.68;0.68;;;22.80;99.90;;;;;;5062672;28;20649;-84
2022/05/16 03:12:49;;;;;;;1.08;0.60;;;22.80;99.90;;;;;;5061813;28;20208;-84
2022/05/16 03:15:20;;;;;;;1.70;0.60;;;22.80;99.90;;;;;;5066074;28;20206;-82
2022/05/16 03:17:50;;;;;;;0.88;0.60;;;22.80;99.90;;;;;;5064980;28;20225;-85
2022/05/16 03:20:21;;;;;;;0.80;0.63;;;22.90;99.90;;;;;;5061832;28;20571;-84
2022/05/16 03:22:52;;;;;;;1.40;0.60;;;22.90;99.90;;;;;;5070358;28;20617;-84
2022/05/16 03:25:24;;;;;;;2.63;0.70;;;22.90;99.90;;;;;;5066886;28;20212;-86
2022/05/16 03:27:55;;;;;;;0.88;0.60;;;22.80;99.90;;;;;;5065757;28;20204;-83
2022/05/16 03:30:26;;;;;;;0.70;0.70;;;22.80;99.90;;;;;;5064212;28;20251;-83
2022/05/16 03:32:56;;;;;;;2.60;0.60;;;22.80;99.90;;;;;;5067973;28;20193;-83
2022/05/16 03:35:27;;;;;;;8.00;2.10;;;22.80;99.90;;;;;;5066689;28;20189;-82
2022/05/16 03:37:58;;;;;;;2.53;0.70;;;22.80;99.90;;;;;;5063944;28;20212;-82
2022/05/16 03:40:45;;;;;;;2.22;0.70;;;22.70;99.90;;;;;;5064667;28;20258;-82
2022/05/16 03:43:17;;;;;;;1.15;0.68;;;22.70;99.90;;;;;;5069776;28;20279;-84
2022/05/16 03:45:47;;;;;;;1.42;0.82;;;22.80;99.90;;;;;;5067911;28;20196;-81
2022/05/16 03:48:18;;;;;;;1.30;0.77;;;22.80;99.90;;;;;;5069979;28;20193;-82
2022/05/16 03:50:48;;;;;;;1.67;0.70;;;22.70;99.90;;;;;;5063758;28;20201;-84
2022/05/16 03:53:19;;;;;;;1.38;0.55;;;22.70;99.90;;;;;;5070601;28;20254;-83
2022/05/16 03:55:51;;;;;;;1.23;0.60;;;22.70;99.90;;;;;;5068772;28;20203;-82
2022/05/16 03:58:22;;;;;;;1.73;0.77;;;22.70;99.90;;;;;;5070382;28;20694;-83
2022/05/16 04:00:53;;;;;;;0.77;0.60;;;22.70;99.90;;;;;;5071714;28;20718;-83
2022/05/16 04:03:23;;;;;;;2.00;0.70;;;22.60;99.90;;;;;;5066685;28;20611;-83
2022/05/16 04:05:54;;;;;;;1.38;0.80;;;22.70;99.90;;;;;;5064651;28;20201;-83
2022/05/16 04:08:25;;;;;;;2.78;1.50;;;22.60;99.90;;;;;;5065976;28;20236;-83
2022/05/16 04:10:58;;;;;;;1.00;0.75;;;22.70;99.90;;;;;;5061484;28;20683;-83
2022/05/16 04:13:29;;;;;;;2.03;0.60;;;22.70;99.90;;;;;;5065008;28;20661;-83
2022/05/16 04:16:00;;;;;;;1.25;0.55;;;22.70;99.90;;;;;;5068761;28;20605;-84
2022/05/16 04:18:31;;;;;;;4.03;0.88;;;22.70;99.90;;;;;;5061127;28;20217;-83
2022/05/16 04:21:02;;;;;;;1.05;0.82;;;22.70;99.90;;;;;;5063950;28;20193;-83
2022/05/16 04:23:32;;;;;;;2.50;0.70;;;22.70;99.90;;;;;;5069838;28;20645;-83
2022/05/16 04:26:05;;;;;;;0.88;0.80;;;22.70;99.90;;;;;;5072267;28;20214;-82
2022/05/16 04:28:35;;;;;;;1.63;0.85;;;22.80;99.90;;;;;;5070814;28;20193;-82
2022/05/16 04:31:06;;;;;;;1.05;0.95;;;22.70;99.90;;;;;;5072890;28;20189;-82
2022/05/16 04:33:37;;;;;;;2.28;0.90;;;22.70;99.90;;;;;;5072623;28;20197;-82
2022/05/16 04:36:08;;;;;;;0.82;0.70;;;22.70;99.90;;;;;;5073376;28;20193;-82
2022/05/16 04:38:38;;;;;;;0.80;0.80;;;22.60;99.90;;;;;;5061327;28;20225;-82
2022/05/16 04:43:57;;;;;;;3.78;0.75;;;22.60;99.90;;;;;;5064707;28;20200;-83
2022/05/16 04:46:28;;;;;;;0.55;0.55;;;22.50;99.90;;;;;;5066817;28;20633;-82
2022/05/16 04:48:59;;;;;;;2.38;1.20;;;22.50;99.90;;;;;;5061339;28;20259;-84
2022/05/16 04:51:29;;;;;;;1.15;0.90;;;22.60;99.90;;;;;;5065260;28;20700;-81
2022/05/16 04:54:00;;;;;;;1.92;0.90;;;22.70;99.90;;;;;;5064284;28;20620;-81
2022/05/16 04:56:32;;;;;;;3.65;0.70;;;22.70;99.90;;;;;;5064817;28;20194;-82
2022/05/16 04:59:03;;;;;;;1.02;0.80;;;22.70;99.90;;;;;;5070976;28;20205;-84
2022/05/16 05:01:34;;;;;;;0.98;0.60;;;22.70;99.90;;;;;;5067948;28;20715;-82
2022/05/16 05:04:04;;;;;;;1.00;0.70;;;22.60;99.90;;;;;;5061208;28;20307;-82
2022/05/16 05:06:35;;;;;;;0.90;0.70;;;22.60;99.90;;;;;;5069757;28;20200;-82
2022/05/16 05:09:06;;;;;;;1.08;0.68;;;22.50;99.90;;;;;;5059325;28;20244;-80
2022/05/16 05:14:34;;;;;;;2.22;0.77;;;22.50;99.90;;;;;;5068156;28;20268;-80
2022/05/16 05:17:05;;;;;;;1.95;0.70;;;22.40;99.90;;;;;;5060938;28;20221;-79
2022/05/16 05:19:36;;;;;;;3.20;0.82;;;22.40;99.90;;;;;;5063077;28;20733;-79
2022/05/16 05:22:07;;;;;;;1.23;0.98;;;22.40;99.90;;;;;;5062090;28;20258;-80
2022/05/16 05:24:38;;;;;;;1.58;0.80;;;22.40;99.90;;;;;;5064953;28;20205;-80
2022/05/16 05:27:11;;;;;;;1.70;0.90;;;22.40;99.90;;;;;;5060986;28;20201;-79
2022/05/16 05:29:41;;;;;;;1.55;1.00;;;22.40;99.90;;;;;;5070184;28;20237;-79
2022/05/16 05:32:12;;;;;;;1.52;1.00;;;22.30;99.90;;;;;;5070429;28;20193;-80
2022/05/16 05:34:43;;;;;;;2.00;0.90;;;22.40;99.90;;;;;;5068631;28;20687;-80
2022/05/16 05:37:14;;;;;;;2.20;0.75;;;22.30;99.90;;;;;;5071792;28;20220;-80
2022/05/16 05:39:45;;;;;;;1.42;0.88;;;22.30;99.90;;;;;;5067386;28;20197;-81
2022/05/16 05:42:17;;;;;;;1.00;0.90;;;22.30;99.90;;;;;;5065884;28;20655;-81
2022/05/16 05:44:48;;;;;;;3.42;0.80;;;22.30;99.90;;;;;;5066966;28;20201;-81
2022/05/16 05:47:18;;;;;;;0.93;0.80;;;22.20;99.90;;;;;;5069300;28;20201;-81
2022/05/16 05:49:49;;;;;;;2.60;0.90;;;22.20;99.90;;;;;;5061727;28;20197;-80
2022/05/16 05:52:20;;;;;;;2.00;1.08;;;22.10;99.90;;;;;;5070321;28;20227;-82
2022/05/16 05:54:51;;;;;;;0.88;0.88;;;22.10;99.90;;;;;;5062347;28;20286;-82
2022/05/16 05:57:25;;;;;;;1.48;0.73;;;22.10;99.90;;;;;;5062298;28;20213;-82
2022/05/16 05:59:55;;;;;;;2.65;0.80;;;22.00;99.90;;;;;;5066019;28;20230;-82
2022/05/16 06:02:26;;;;;;;2.70;0.80;;;22.00;99.90;;;;;;5058069;28;20189;-81
2022/05/16 06:04:57;;;;;;;3.25;0.90;;;22.00;99.90;;;;;;5067149;28;20216;-81
2022/05/16 06:07:28;;;;;;;0.70;0.70;;;21.90;99.90;;;;;;5065469;28;20251;-82
2022/05/16 06:09:58;;;;;;;1.52;0.70;;;21.90;99.90;;;;;;5065678;28;20302;-81
2022/05/16 06:12:31;;;;;;;2.95;0.80;;;21.90;99.90;;;;;;5068415;28;20250;-81
2022/05/16 06:15:01;;;;;;;1.27;0.70;;;21.90;99.90;;;;;;5065915;28;20194;-81
2022/05/16 06:17:33;;;;;;;2.35;0.82;;;21.80;99.90;;;;;;5056740;28;20232;-81
2022/05/16 06:20:03;;;;;;;1.20;0.80;;;21.80;99.90;;;;;;5062081;28;20240;-81
2022/05/16 06:22:36;;;;;;;0.95;0.90;;;21.80;99.90;;;;;;5066860;28;20228;-81
2022/05/16 06:27:57;;;;;;;1.10;1.00;;;21.70;99.90;;;;;;5062946;28;20215;-81
2022/05/16 06:30:28;;;;;;;1.17;0.73;;;21.60;99.90;;;;;;5063451;28;20184;-81
2022/05/16 06:32:59;;;;;;;1.45;0.60;;;21.60;99.90;;;;;;5060956;28;20275;-81
2022/05/16 06:35:30;;;;;;;0.70;0.70;;;21.60;99.90;;;;;;5066230;28;20606;-81
2022/05/16 06:38:06;;;;;;;0.85;0.63;;;21.50;99.90;;;;;;5066878;28;20262;-80
2022/05/16 06:40:38;;;;;;;1.20;0.90;;;21.50;99.90;;;;;;5065506;28;20189;-81
2022/05/16 06:43:12;;;;;;;1.00;0.70;;;21.50;99.90;;;;;;5061879;28;20197;-80
2022/05/16 06:45:43;;;;;;;1.90;1.00;;;21.40;99.90;;;;;;5068185;28;20197;-81
2022/05/16 06:48:14;;;;;;;0.82;0.80;;;21.20;99.90;;;;;;5058601;28;20243;-81
2022/05/16 06:50:46;;;;;;;1.48;0.90;;;21.10;99.90;;;;;;5070000;28;20311;-80
2022/05/16 06:53:19;;;;;;;1.35;0.90;;;21.10;99.90;;;;;;5071187;28;20570;-81
2022/05/16 06:55:49;;;;;;;0.80;0.80;;;20.90;99.90;;;;;;5067423;28;20192;-80
2022/05/16 06:58:22;;;;;;;1.42;0.80;;;20.80;99.90;;;;;;5067663;28;20221;-80
2022/05/16 07:00:53;;;;;;;3.15;1.00;;;20.60;99.90;;;;;;5072697;28;20196;-80
2022/05/16 07:03:23;;;;;;;3.20;1.73;;;20.50;99.90;;;;;;5066726;28;20234;-80
2022/05/16 07:05:55;;;;;;;3.28;2.35;;;20.40;99.90;;;;;;5068178;28;20589;-80
2022/05/16 07:08:26;;;;;;;5.32;2.95;;;20.40;99.90;;;;;;5066763;28;20228;-80
2022/05/16 07:10:57;;;;;;;3.67;1.92;;;20.20;99.90;;;;;;5062550;28;20208;-81
2022/05/16 07:13:30;;;;;;;4.05;2.22;;;20.10;99.90;;;;;;5068859;28;20652;-80
2022/05/16 07:16:01;;;;;;;2.50;1.70;;;20.10;99.90;;;;;;5068153;28;20728;-80
2022/05/16 07:18:32;;;;;;;3.17;1.80;;;20.00;99.90;;;;;;5063511;28;20267;-80
2022/05/16 07:21:04;;;;;;;1.98;1.77;;;19.90;99.90;;;;;;5070230;28;20193;-81
2022/05/16 07:23:35;;;;;;;3.55;2.30;;;19.80;99.90;;;;;;5068768;28;20201;-81
2022/05/16 07:28:54;;;;;;;3.97;1.88;;;19.70;99.90;;;;;;5068131;28;20670;-80
2022/05/16 07:31:25;;;;;;;2.50;1.90;;;19.60;99.90;;;;;;5064096;28;20193;-80
2022/05/16 07:33:56;;;;;;;2.95;2.13;;;19.60;99.90;;;;;;5068731;28;20719;-80
2022/05/16 07:36:26;;;;;;;2.47;1.50;;;19.50;99.90;;;;;;5070568;28;20204;-80
2022/05/16 07:38:57;;;;;;;2.55;1.92;;;19.40;99.90;;;;;;5070986;28;20217;-80
2022/05/16 07:41:29;;;;;;;4.07;1.90;;;19.30;99.90;;;;;;5064878;28;20189;-80
2022/05/16 07:44:01;;;;;;;2.28;2.08;;;19.30;99.90;;;;;;5063454;28;20208;-80
2022/05/16 07:46:32;;;;;;;1.38;1.27;;;19.30;99.90;;;;;;5066161;28;20625;-79
2022/05/16 07:49:02;;;;;;;5.13;1.50;;;19.20;99.90;;;;;;5069284;28;20200;-80
2022/05/16 07:51:33;;;;;;;3.20;1.42;;;19.20;99.90;;;;;;5070541;28;20318;-81
2022/05/16 07:54:04;;;;;;;3.90;1.70;;;19.20;99.90;;;;;;5069028;28;20193;-80
2022/05/16 07:56:34;;;;;;;3.90;1.50;;;19.20;99.90;;;;;;5071090;28;20193;-80
2022/05/16 07:59:09;;;;;;;5.72;1.70;;;19.20;99.90;;;;;;5069199;28;20220;-80
2022/05/16 08:01:40;;;;;;;6.07;1.70;;;19.20;99.90;;;;;;5067995;28;20230;-80
2022/05/16 08:04:12;;;;;;;3.13;1.85;;;19.20;99.90;;;;;;5061312;28;20194;-80
2022/05/16 08:06:43;;;;;;;5.32;1.80;;;19.20;99.90;;;;;;5070506;28;20205;-80
2022/05/16 08:12:00;;;;;;;5.30;1.73;;;19.40;99.90;;;;;;5058527;28;20200;-80
2022/05/16 08:14:33;;;;;;;3.83;1.58;;;19.40;99.90;;;;;;5063903;28;20204;-80
2022/05/16 08:17:04;;;;;;;3.13;1.50;;;19.50;99.90;;;;;;5067888;28;20602;-80
2022/05/16 08:19:35;;;;;;;3.20;1.40;;;19.50;99.90;;;;;;5061523;28;20220;-80
2022/05/16 08:22:06;;;;;;;2.22;1.45;;;19.50;99.90;;;;;;5062053;28;20244;-80
2022/05/16 08:24:36;;;;;;;3.00;1.50;;;19.50;99.90;;;;;;5070407;28;20200;-80
2022/05/16 08:27:07;;;;;;;2.42;1.50;;;19.50;99.90;;;;;;5055681;28;20211;-80
2022/05/16 08:29:40;;;;;;;2.83;1.35;;;19.40;99.90;;;;;;5063000;28;20652;-80
2022/05/16 08:32:15;;;;;;;3.17;1.77;;;19.40;99.90;;;;;;5066699;28;20246;-81
2022/05/16 08:34:46;;;;;;;9.00;2.00;;;19.40;99.90;;;;;;5063083;28;20204;-81
2022/05/16 08:40:03;;;;;;;3.13;1.58;;;19.40;99.90;;;;;;5020956;28;20396;-81
2022/05/16 08:42:50;;;;;;;4.78;1.40;;;19.40;99.90;;;;;;5060613;28;20201;-81
2022/05/16 08:45:32;;;;;;;2.95;1.40;;;19.50;99.90;;;;;;5063491;28;20221;-80
2022/05/16 08:48:11;;;;;;;3.40;1.50;;;19.70;99.90;;;;;;5061754;28;20637;-81
2022/05/16 08:50:46;;;;;;;6.45;1.50;;;19.80;99.90;;;;;;5062317;28;20217;-81
2022/05/16 08:53:21;;;;;;;3.70;1.30;;;19.90;99.90;;;;;;5058270;28;20204;-80
2022/05/16 08:55:53;;;;;;;3.10;1.38;;;19.90;99.90;;;;;;5058849;28;20228;-80
2022/05/16 08:58:29;;;;;;;2.45;1.17;;;19.90;99.90;;;;;;5066852;28;20213;-80
2022/05/16 09:01:07;;;;;;;2.50;1.30;;;19.90;99.90;;;;;;5059170;28;20209;-81
2022/05/16 09:03:41;;;;;;;3.55;1.40;;;19.90;99.90;;;;;;5066218;28;20291;-81
2022/05/16 09:06:19;;;;;;;3.20;1.70;;;19.90;99.90;;;;;;5060575;28;20287;-81
2022/05/16 09:08:53;;;;;;;4.15;1.58;;;19.80;99.90;;;;;;5066646;28;20266;-80
2022/05/16 09:11:32;;;;;;;1.85;1.20;;;19.80;99.90;;;;;;5061761;28;20234;-80
2022/05/16 09:14:05;;;;;;;3.33;1.30;;;19.80;99.90;;;;;;5063800;28;20205;-80
2022/05/16 09:16:45;;;;;;;4.85;1.50;;;19.70;99.90;;;;;;5068192;28;20203;-81
2022/05/16 09:19:38;;;;;;;3.90;1.20;;;19.70;99.90;;;;;;5066962;28;20698;-80
2022/05/16 09:22:13;;;;;;;4.13;1.20;;;19.60;99.90;;;;;;5060612;28;20737;-80
2022/05/16 09:24:51;;;;;;;3.28;1.00;;;19.60;99.90;;;;;;5059307;28;20530;-80
2022/05/16 09:30:16;;;;;;;3.90;1.25;;;19.50;99.90;;;;;;5060978;28;20201;-80
2022/05/16 09:32:53;;;;;;;2.08;0.90;;;19.40;99.90;;;;;;5065553;28;20276;-81
2022/05/16 09:35:33;;;;;;;3.78;1.00;;;19.40;99.90;;;;;;5062469;28;20235;-80
2022/05/16 09:38:03;;;;;;;5.18;1.40;;;19.30;99.90;;;;;;5061437;28;20247;-80
2022/05/16 09:40:37;;;;;;;1.77;0.80;;;19.20;99.90;;;;;;5068127;28;20746;-80
2022/05/16 09:43:21;;;;;;;3.55;1.48;;;19.20;99.90;;;;;;5068680;28;20189;-80
2022/05/16 09:45:56;;;;;;;3.13;1.10;;;19.20;99.90;;;;;;5074685;28;20676;-80
2022/05/16 09:48:28;;;;;;;3.17;0.82;;;19.10;99.90;;;;;;5068900;28;20188;-80
2022/05/16 09:51:01;;;;;;;1.38;0.80;;;19.00;99.90;;;;;;5062819;28;20216;-81
2022/05/16 09:53:35;;;;;;;3.85;0.90;;;19.00;99.90;;;;;;5068305;28;20193;-80
2022/05/16 09:56:09;;;;;;;2.80;0.82;;;19.00;99.90;;;;;;5071358;28;20193;-80
2022/05/16 09:58:52;;;;;;;3.45;0.73;;;18.90;99.90;;;;;;5068730;28;20307;-80
2022/05/16 10:01:35;;;;;;;2.90;0.70;;;18.90;99.90;;;;;;5063712;28;20197;-80
2022/05/16 10:04:15;;;;;;;2.78;0.80;;;18.80;99.90;;;;;;5070819;28;20200;-80
2022/05/16 10:06:59;;;;;;;3.42;0.90;;;18.70;99.90;;;;;;5064084;28;20201;-80
2022/05/16 10:09:33;;;;;;;1.67;0.80;;;18.70;99.90;;;;;;5059753;28;20220;-80
2022/05/16 10:12:04;;;;;;;2.17;0.90;;;18.60;99.90;;;;;;5054533;28;20213;-80
2022/05/16 10:14:36;;;;;;;3.67;0.95;;;18.60;99.90;;;;;;5063984;28;20201;-80
2022/05/16 10:17:08;;;;;;;1.90;0.88;;;18.50;99.90;;;;;;5069001;28;20190;-80
2022/05/16 10:19:43;;;;;;;2.65;0.88;;;18.40;99.90;;;;;;5063489;28;20220;-80
2022/05/16 10:22:19;;;;;;;3.33;0.90;;;18.40;99.90;;;;;;5052658;28;20197;-81
2022/05/16 10:24:55;;;;;;;3.95;1.00;;;18.30;99.90;;;;;;5052755;28;20189;-80
2022/05/16 10:27:31;;;;;;;2.78;1.10;;;18.20;99.90;;;;;;5053507;28;20204;-80
2022/05/16 10:30:06;;;;;;;2.15;0.90;;;18.20;99.90;;;;;;5062642;28;20194;-80
2022/05/16 10:35:31;;;;;;;2.08;0.85;;;17.90;99.90;;;;;;5053036;28;20644;-80
2022/05/16 10:38:05;;;;;;;3.63;1.20;;;17.90;99.90;;;;;;5058981;28;20197;-80
2022/05/16 10:40:39;;;;;;;4.05;1.08;;;17.80;99.90;;;;;;5055113;28;20205;-80
2022/05/16 10:43:29;;;;;;;1.98;0.90;;;17.70;99.90;;;;;;5066274;28;20193;-80
2022/05/16 10:46:04;;;;;;;4.93;1.20;;;17.70;99.90;;;;;;5060602;28;20201;-80
2022/05/16 10:48:41;;;;;;;2.25;1.10;;;17.60;99.90;;;;;;5055907;28;20288;-80
2022/05/16 10:51:18;;;;;;;4.20;1.30;;;17.50;99.90;;;;;;5064540;28;20224;-80
2022/05/16 10:54:04;;;;;;;3.75;1.00;;;17.50;99.90;;;;;;5065647;28;20601;-80
2022/05/16 10:56:50;;;;;;;3.58;1.10;;;17.50;99.90;;;;;;5052941;28;20205;-80
2022/05/16 10:59:37;;;;;;;3.33;1.10;;;17.60;99.90;;;;;;5063777;28;20209;-79
2022/05/16 11:02:15;;;;;;;5.43;1.23;;;17.60;99.90;;;;;;5052363;28;20190;-80
2022/05/16 11:05:04;;;;;;;3.85;0.80;;;17.60;99.90;;;;;;5071225;28;20200;-79
2022/05/16 11:07:48;;;;;;;4.95;1.00;;;17.60;99.90;;;;;;5064272;28;20216;-79
2022/05/16 11:10:27;;;;;;;3.40;1.02;;;17.60;99.90;;;;;;5053841;28;20193;-79
2022/05/16 11:13:09;;;;;;;3.70;0.80;;;17.50;99.90;;;;;;5053430;28;20289;-79
2022/05/16 11:15:44;;;;;;;2.45;0.73;;;17.60;99.90;;;;;;5057977;28;20255;-80
2022/05/16 11:18:23;;;;;;;3.88;0.88;;;17.60;99.90;;;;;;5058644;28;20731;-79
2022/05/16 11:21:01;;;;;;;2.10;0.75;;;17.60;99.90;;;;;;5060145;28;20261;-79
2022/05/16 11:23:48;;;;;;;4.90;0.90;;;17.60;99.90;;;;;;5057477;28;20255;-80
2022/05/16 11:26:23;;;;;;;1.88;0.80;;;17.50;99.90;;;;;;5052196;28;20222;-79
2022/05/16 11:29:21;;;;;;;3.58;1.00;;;17.40;99.90;;;;;;5071781;28;20253;-79
2022/05/16 11:32:05;;;;;;;2.10;1.00;;;17.30;99.90;;;;;;5059524;28;20209;-79
2022/05/16 11:34:54;;;;;;;3.70;1.25;;;17.10;99.90;;;;;;5059895;28;20186;-79
2022/05/16 11:37:42;;;;;;;2.10;1.10;;;17.00;99.90;;;;;;5058807;28;20201;-79
2022/05/16 11:40:23;;;;;;;2.55;1.02;;;16.80;99.90;;;;;;5067582;28;20213;-79
2022/05/16 11:43:06;;;;;;;4.10;1.10;;;16.80;99.90;;;;;;5056200;28;20251;-79
2022/05/16 11:45:51;;;;;;;5.53;1.42;;;16.70;99.90;;;;;;5056508;28;20232;-80
2022/05/16 11:48:29;;;;;;;3.85;1.10;;;16.70;99.90;;;;;;5061530;28;20212;-80
2022/05/16 11:51:10;;;;;;;5.55;1.10;;;16.60;99.90;;;;;;5061028;28;20189;-80
2022/05/16 11:53:48;;;;;;;2.80;1.10;;;16.50;99.90;;;;;;5065702;28;20189;-78
2022/05/16 12:02:22;;;;;;;30.33;20.65;;;16.50;99.90;;;;;;5056189;28;20235;-80
2022/05/16 12:04:55;;;;;;;5.90;2.55;;;16.40;99.90;;;;;;5055185;28;20185;-79
2022/05/16 12:07:32;;;;;;;3.28;1.52;;;16.40;99.90;;;;;;5055393;28;20601;-80
2022/05/16 12:10:19;;;;;;;2.22;1.38;;;16.30;99.90;;;;;;5069368;28;20308;-80
2022/05/16 12:13:06;;;;;;;4.25;1.60;;;16.20;99.90;;;;;;5077923;28;20612;-79
2022/05/16 12:15:38;;;;;;;5.75;1.40;;;16.10;99.90;;;;;;5063591;28;20197;-79
2022/05/16 12:18:28;;;;;;;4.47;1.33;;;16.10;99.90;;;;;;5069220;28;20193;-79
2022/05/16 12:21:09;;;;;;;4.70;1.70;;;16.00;99.90;;;;;;5059640;28;20220;-80
2022/05/16 12:24:02;;;;;;;3.53;1.42;;;16.00;99.90;;;;;;5068552;28;20193;-79
2022/05/16 12:27:03;;;;;;;3.22;1.17;;;16.00;99.90;;;;;;5054945;28;20610;-79
2022/05/16 12:29:52;;;;;;;3.05;1.13;;;16.00;99.90;;;;;;5052320;28;20280;-81
2022/05/16 12:32:51;;;;;;;5.97;1.92;;;15.90;99.90;;;;;;5059450;28;20198;-81
2022/05/16 12:35:40;;;;;;;6.82;4.63;;;15.90;99.90;;;;;;5063444;28;20193;-80
2022/05/16 12:38:15;;;;;;;5.30;2.35;;;15.90;99.90;;;;;;5062791;28;20201;-79
2022/05/16 12:44:17;;;;;;;3.53;1.27;;;15.90;99.90;;;;;;5067461;28;20205;-80
2022/05/16 12:47:18;;;;;;;2.30;1.20;;;15.90;99.90;;;;;;5055288;28;20201;-79
2022/05/16 12:50:13;;;;;;;3.38;1.33;;;15.90;99.90;;;;;;5056774;28;20712;-79
2022/05/16 12:53:16;;;;;;;3.50;1.15;;;15.90;99.90;;;;;;5062256;28;20272;-78
2022/05/16 12:56:01;;;;;;;3.13;1.40;;;15.90;99.90;;;;;;5062973;28;20198;-79
2022/05/16 12:58:37;;;;;;;4.25;1.40;;;16.00;99.90;;;;;;5059047;28;20186;-78
2022/05/16 13:01:20;;;;;;;3.10;1.20;;;16.10;99.90;;;;;;5064427;28;20221;-79
2022/05/16 13:04:00;;;;;;;2.45;1.33;;;16.20;99.90;;;;;;5061845;28;20722;-79
2022/05/16 13:07:00;;;;;;;5.85;1.40;;;16.30;99.90;;;;;;5057053;28;20190;-79
2022/05/16 13:09:44;;;;;;;3.45;1.10;;;16.30;99.90;;;;;;5040751;28;20279;-79
2022/05/16 13:12:28;;;;;;;3.15;0.93;;;16.40;99.90;;;;;;5071836;28;20644;-79
2022/05/16 13:15:06;;;;;;;2.90;1.15;;;16.40;99.90;;;;;;5063925;28;20331;-79
2022/05/16 13:17:41;;;;;;;2.72;1.13;;;16.40;99.90;;;;;;5062458;28;20252;-79
2022/05/16 13:20:18;;;;;;;2.17;1.00;;;16.30;99.90;;;;;;5059819;28;20224;-79
2022/05/16 13:22:51;;;;;;;2.40;0.80;;;16.20;99.90;;;;;;5062001;28;20719;-79
2022/05/16 13:25:24;;;;;;;2.17;1.02;;;16.10;99.90;;;;;;5058702;28;20276;-79
2022/05/16 13:30:43;;;;;;;4.47;1.10;;;16.00;99.90;;;;;;5056515;28;20240;-79
2022/05/16 13:33:29;;;;;;;2.75;1.00;;;15.90;99.90;;;;;;5061255;28;20216;-79
2022/05/16 13:36:16;;;;;;;3.35;1.00;;;15.70;99.90;;;;;;5063269;28;20281;-79
2022/05/16 13:38:48;;;;;;;2.63;1.00;;;15.60;99.90;;;;;;5059445;28;20209;-79
2022/05/16 13:41:25;;;;;;;4.10;1.20;;;15.60;99.90;;;;;;5064683;28;20299;-79
2022/05/16 13:43:58;;;;;;;3.22;1.15;;;15.50;99.90;;;;;;5058392;28;20279;-79
2022/05/16 13:46:31;;;;;;;2.42;0.95;;;15.50;99.90;;;;;;5059250;28;20200;-79
2022/05/16 13:49:04;;;;;;;5.70;1.40;;;15.40;99.90;;;;;;5064854;28;20236;-79
2022/05/16 13:51:44;;;;;;;2.63;0.90;;;15.40;99.90;;;;;;5057362;28;20641;-79
2022/05/16 13:54:19;;;;;;;2.30;0.95;;;15.40;99.90;;;;;;5059179;28;20346;-79
2022/05/16 13:56:51;;;;;;;4.47;1.00;;;15.40;99.90;;;;;;5054792;28;20193;-78
2022/05/16 13:59:26;;;;;;;3.78;1.17;;;15.40;99.90;;;;;;5058055;28;20208;-79
2022/05/16 14:02:01;;;;;;;5.07;1.00;;;15.40;99.90;;;;;;5058321;28;20201;-79
2022/05/16 14:04:34;;;;;;;3.47;0.98;;;15.30;99.90;;;;;;5065233;28;20201;-78
2022/05/16 14:07:13;;;;;;;2.50;1.00;;;15.20;99.90;;;;;;5070979;28;20242;-79